Time;durP1;ratioP1;P1;durP2;ratioP2;P2;SDS_P1;SDS_P2;PMS_P1;PMS_P2;Temp;Humidity;BMP_temperature;BMP_pressure;BME280_temperature;BME280_humidity;BME280_pressure;Samples;Min_cycle;Max_cycle;Signal;HPM_P1;HPM_P2
2022/07/06 00:02:04;;;;;;;4.70;4.30;;;;;;;19.61;55.06;156403.03;5050041;28;20447;-75
2022/07/06 00:04:31;;;;;;;5.97;4.27;;;;;;;19.58;54.98;156396.50;5048683;28;20492;-74
2022/07/06 00:06:58;;;;;;;4.00;3.70;;;;;;;19.57;54.54;156392.56;5047125;28;20771;-74
2022/07/06 00:09:25;;;;;;;4.20;3.90;;;;;;;19.54;54.83;156386.06;5049379;28;20542;-76
2022/07/06 00:11:53;;;;;;;4.07;3.77;;;;;;;19.51;54.92;156376.97;5049491;28;20520;-76
2022/07/06 00:14:19;;;;;;;4.20;3.80;;;;;;;19.48;55.20;156369.13;5047663;28;20444;-77
2022/07/06 00:16:47;;;;;;;4.40;4.10;;;;;;;19.42;55.14;156354.78;5050616;28;20540;-76
2022/07/06 00:19:13;;;;;;;4.73;4.20;;;;;;;19.38;55.85;156344.34;5048917;28;20936;-76
2022/07/06 00:21:40;;;;;;;5.20;4.30;;;;;;;19.36;55.80;156339.09;5046932;28;20451;-76
2022/07/06 00:24:07;;;;;;;4.47;4.07;;;;;;;19.33;55.77;156331.25;5056928;28;20431;-76
2022/07/06 00:26:34;;;;;;;4.30;3.90;;;;;;;19.33;55.72;156332.56;5045970;28;20496;-74
2022/07/06 00:29:02;;;;;;;4.07;3.77;;;;;;;19.29;56.16;156322.16;5050846;28;20438;-74
2022/07/06 00:31:29;;;;;;;4.40;4.00;;;;;;;19.28;56.20;156318.22;5033938;28;20500;-74
2022/07/06 00:33:55;;;;;;;5.17;4.27;;;;;;;19.30;56.00;156324.75;5048218;28;21024;-74
2022/07/06 00:36:22;;;;;;;4.97;4.47;;;;;;;19.29;56.21;156322.16;5046214;28;20513;-74
2022/07/06 00:38:49;;;;;;;5.93;4.20;;;;;;;19.27;56.30;156315.66;5032786;28;20454;-76
2022/07/06 00:41:16;;;;;;;5.03;4.20;;;;;;;19.25;56.44;156310.41;5032919;28;20447;-76
2022/07/06 00:43:55;;;;;;;4.87;4.47;;;;;;;19.24;56.34;156309.13;5039090;28;20443;-76
2022/07/06 00:46:28;;;;;;;4.80;4.10;;;;;;;19.21;56.46;156301.31;5014571;28;20814;-76
2022/07/06 00:48:56;;;;;;;4.67;4.27;;;;;;;19.18;56.17;156293.50;5039305;28;20462;-76
2022/07/06 00:51:26;;;;;;;4.83;4.33;;;;;;;19.20;56.27;156298.69;5046428;28;20510;-76
2022/07/06 00:53:56;;;;;;;4.60;4.23;;;;;;;19.18;55.96;156293.50;5036350;28;20447;-76
2022/07/06 00:56:23;;;;;;;4.03;3.73;;;;;;;19.14;56.36;156281.78;5019876;28;20573;-76
2022/07/06 00:58:49;;;;;;;4.80;4.40;;;;;;;19.12;56.48;156276.53;5048866;28;20477;-76
2022/07/06 01:01:16;;;;;;;3.83;3.53;;;;;;;19.05;56.59;156258.28;5049791;28;20502;-76
2022/07/06 01:03:44;;;;;;;4.93;4.23;;;;;;;19.03;57.07;156254.41;5047704;28;20789;-75
2022/07/06 01:06:11;;;;;;;4.50;4.20;;;;;;;19.03;57.04;156253.09;5046085;28;20451;-76
2022/07/06 01:08:38;;;;;;;5.33;4.80;;;;;;;18.97;57.06;156238.75;5035138;28;21053;-76
2022/07/06 01:11:05;;;;;;;4.53;4.23;;;;;;;18.97;57.14;156238.75;5047563;28;20457;-76
2022/07/06 01:13:33;;;;;;;4.43;4.03;;;;;;;18.93;56.86;156228.31;5047281;28;20511;-75
2022/07/06 01:16:00;;;;;;;4.70;4.30;;;;;;;18.92;57.56;156225.72;5030945;28;20454;-76
2022/07/06 01:18:27;;;;;;;4.10;3.67;;;;;;;18.87;57.70;156212.72;5049644;28;20491;-76
2022/07/06 01:21:07;;;;;;;4.60;4.27;;;;;;;18.86;57.32;156210.09;5050688;28;20980;-76
2022/07/06 01:23:39;;;;;;;4.40;3.90;;;;;;;18.90;56.96;156220.53;5050894;28;20492;-76
2022/07/06 01:26:06;;;;;;;4.40;4.00;;;;;;;18.87;56.73;156212.72;5048532;28;20454;-76
2022/07/06 01:28:33;;;;;;;4.73;3.90;;;;;;;18.84;56.86;156206.19;5048426;28;20496;-76
2022/07/06 01:31:00;;;;;;;4.33;3.93;;;;;;;18.79;56.72;156191.84;5032822;28;20877;-75
2022/07/06 01:33:26;;;;;;;4.53;4.17;;;;;;;18.74;56.83;156178.84;5048559;28;20522;-76
2022/07/06 01:35:53;;;;;;;4.20;3.90;;;;;;;18.70;57.63;156168.38;5047992;28;20462;-76
2022/07/06 01:38:21;;;;;;;4.63;3.97;;;;;;;18.70;57.47;156168.38;5029884;28;20440;-76
2022/07/06 01:40:48;;;;;;;4.10;3.70;;;;;;;18.69;57.33;156165.81;5030495;28;20857;-76
2022/07/06 01:43:15;;;;;;;5.67;3.67;;;;;;;18.62;57.24;156147.53;5045675;28;20457;-75
2022/07/06 01:45:42;;;;;;;6.60;3.73;;;;;;;18.54;58.01;156126.69;5048984;28;20474;-76
2022/07/06 01:48:09;;;;;;;4.30;3.90;;;;;;;18.48;57.91;156111.09;5049157;28;20497;-75
2022/07/06 01:50:36;;;;;;;3.60;3.30;;;;;;;18.47;58.21;156109.78;5050098;28;20789;-76
2022/07/06 01:53:03;;;;;;;4.20;3.73;;;;;;;18.45;57.92;156104.53;5044568;28;20466;-76
2022/07/06 01:55:32;;;;;;;3.90;3.50;;;;;;;18.44;58.25;156101.91;5027728;28;20476;-76
2022/07/06 01:57:59;;;;;;;4.17;3.87;;;;;;;18.37;57.56;156082.38;5030000;28;20581;-76
2022/07/06 02:00:26;;;;;;;4.20;3.50;;;;;;;18.31;58.14;156068.06;5029909;28;20491;-76
2022/07/06 02:02:53;;;;;;;6.23;3.77;;;;;;;18.31;58.11;156066.75;5047950;28;20450;-76
2022/07/06 02:05:20;;;;;;;4.17;3.87;;;;;;;18.27;58.11;156058.91;5051379;28;20491;-75
2022/07/06 02:07:46;;;;;;;6.17;3.60;;;;;;;18.17;58.55;156032.88;5046360;28;20497;-75
2022/07/06 02:10:14;;;;;;;4.17;3.77;;;;;;;18.20;58.29;156040.69;5034881;28;20450;-76
2022/07/06 02:12:44;;;;;;;4.10;3.73;;;;;;;18.15;58.38;156027.69;5052799;28;20470;-76
2022/07/06 02:15:11;;;;;;;3.77;3.37;;;;;;;18.09;58.38;156012.03;5052702;28;20885;-76
2022/07/06 02:17:39;;;;;;;4.40;3.50;;;;;;;18.08;58.64;156008.16;5036358;28;20941;-76
2022/07/06 02:20:06;;;;;;;6.70;3.57;;;;;;;18.06;58.61;156004.22;5052513;28;20437;-75
2022/07/06 02:22:33;;;;;;;6.87;3.83;;;;;;;17.96;59.33;155978.19;5051574;28;20445;-76
2022/07/06 02:25:01;;;;;;;3.90;3.60;;;;;;;17.92;59.47;155966.50;5034775;28;21223;-76
2022/07/06 02:27:27;;;;;;;5.10;3.53;;;;;;;17.91;59.26;155963.88;5039668;28;20458;-76
2022/07/06 02:29:56;;;;;;;5.73;4.00;;;;;;;17.87;59.69;155954.72;5052382;28;20438;-76
2022/07/06 02:32:23;;;;;;;8.80;3.90;;;;;;;17.86;59.34;155952.16;5053488;28;20540;-76
2022/07/06 02:34:50;;;;;;;4.53;3.77;;;;;;;17.78;59.99;155931.31;5034081;28;20844;-76
2022/07/06 02:37:17;;;;;;;4.10;3.70;;;;;;;17.79;59.60;155933.91;5052976;28;20530;-75
2022/07/06 02:39:45;;;;;;;4.13;3.80;;;;;;;17.78;59.98;155931.31;5052933;28;20449;-76
2022/07/06 02:42:12;;;;;;;3.80;3.50;;;;;;;17.77;60.08;155928.69;5035836;28;20807;-75
2022/07/06 02:44:39;;;;;;;4.00;3.70;;;;;;;17.74;60.47;155919.63;5047374;28;20544;-75
2022/07/06 02:47:07;;;;;;;4.60;4.20;;;;;;;17.75;60.43;155922.19;5036365;28;20549;-77
2022/07/06 02:49:34;;;;;;;5.20;4.70;;;;;;;17.71;60.74;155913.13;5053208;28;20441;-77
2022/07/06 02:52:01;;;;;;;4.10;3.70;;;;;;;17.71;60.79;155913.13;5053215;28;20929;-76
2022/07/06 02:54:29;;;;;;;5.00;4.10;;;;;;;17.64;61.31;155896.16;5050620;28;20477;-77
2022/07/06 02:56:56;;;;;;;5.23;4.07;;;;;;;17.57;61.18;155876.66;5054351;28;20520;-77
2022/07/06 02:59:23;;;;;;;4.93;3.73;;;;;;;17.53;61.57;155866.22;5035137;28;20446;-76
2022/07/06 03:01:51;;;;;;;4.23;3.90;;;;;;;17.45;61.85;155845.34;5028455;28;20852;-76
2022/07/06 03:04:19;;;;;;;4.20;3.80;;;;;;;17.48;61.84;155853.16;5050469;28;20451;-77
2022/07/06 03:06:46;;;;;;;18.57;4.67;;;;;;;17.43;62.52;155840.13;5036693;28;20487;-76
2022/07/06 03:09:13;;;;;;;4.20;3.80;;;;;;;17.44;62.26;155844.06;5052741;28;20454;-76
2022/07/06 03:11:40;;;;;;;4.57;4.17;;;;;;;17.41;62.27;155834.94;5036371;28;20980;-76
2022/07/06 03:14:08;;;;;;;4.57;3.90;;;;;;;17.40;62.38;155833.63;5032453;28;20471;-84
2022/07/06 03:16:38;;;;;;;6.47;4.50;;;;;;;17.36;62.78;155821.94;5051486;28;20513;-84
2022/07/06 03:19:07;;;;;;;5.60;4.53;;;;;;;17.30;62.96;155807.63;5051341;28;20423;-83
2022/07/06 03:21:36;;;;;;;7.10;4.13;;;;;;;17.27;63.22;155799.78;5052054;28;20435;-83
2022/07/06 03:24:03;;;;;;;5.07;4.67;;;;;;;17.34;62.55;155818.00;5031475;28;20474;-83
2022/07/06 03:26:30;;;;;;;4.30;3.90;;;;;;;17.32;63.05;155811.50;5034189;28;20512;-83
2022/07/06 03:28:58;;;;;;;5.37;4.07;;;;;;;17.32;63.09;155811.50;5033325;28;20497;-83
2022/07/06 03:31:24;;;;;;;4.37;4.07;;;;;;;17.23;63.41;155788.09;5066842;28;20561;-83
2022/07/06 03:33:52;;;;;;;4.40;4.00;;;;;;;17.18;63.28;155775.09;5033978;28;21061;-83
2022/07/06 03:36:19;;;;;;;4.17;3.77;;;;;;;17.08;63.90;155749.06;5035337;28;20486;-83
2022/07/06 03:38:49;;;;;;;5.20;4.20;;;;;;;17.11;63.87;155758.16;5014889;28;20447;-83
2022/07/06 03:41:16;;;;;;;4.23;3.93;;;;;;;17.13;64.14;155763.34;5032236;28;20527;-83
2022/07/06 03:43:43;;;;;;;6.00;4.57;;;;;;;17.02;63.90;155736.00;5048096;28;20922;-83
2022/07/06 03:46:09;;;;;;;4.47;3.93;;;;;;;17.05;64.21;155743.81;5047506;28;20505;-83
2022/07/06 03:48:36;;;;;;;5.20;4.70;;;;;;;17.07;64.08;155746.44;5034256;28;20557;-83
2022/07/06 03:51:06;;;;;;;5.40;4.60;;;;;;;17.07;63.96;155747.75;5029749;28;20458;-83
2022/07/06 03:53:33;;;;;;;4.43;4.10;;;;;;;17.03;64.04;155737.31;5014787;28;20490;-83
2022/07/06 03:58:46;;;;;;;7.87;4.57;;;;;;;17.01;64.22;155733.44;5049504;28;20477;-83
2022/07/06 04:01:13;;;;;;;7.97;4.77;;;;;;;17.00;64.56;155730.81;5028780;28;20530;-83
2022/07/06 04:03:40;;;;;;;4.30;3.90;;;;;;;17.03;64.70;155738.63;5023708;28;20443;-83
2022/07/06 04:06:07;;;;;;;4.67;4.27;;;;;;;17.02;64.71;155736.00;5032159;28;20450;-83
2022/07/06 04:08:34;;;;;;;4.70;4.30;;;;;;;17.02;64.90;155736.00;5032135;28;20535;-83
2022/07/06 04:11:03;;;;;;;4.30;4.00;;;;;;;16.99;65.30;155728.25;5032713;28;20456;-84
2022/07/06 04:13:31;;;;;;;5.53;4.70;;;;;;;17.00;65.24;155729.50;5019765;28;20852;-83
2022/07/06 04:15:58;;;;;;;4.83;4.43;;;;;;;17.07;65.40;155746.44;5033626;28;20466;-84
2022/07/06 04:18:26;;;;;;;4.83;4.30;;;;;;;17.21;64.84;155782.91;5032731;28;20455;-83
2022/07/06 04:20:54;;;;;;;4.80;4.37;;;;;;;17.29;64.62;155803.72;5045666;28;20453;-83
2022/07/06 04:23:21;;;;;;;4.93;4.43;;;;;;;17.45;64.42;155845.34;5046861;28;20447;-83
2022/07/06 04:25:48;;;;;;;4.73;4.43;;;;;;;17.59;64.42;155881.84;5028245;28;20454;-83
2022/07/06 04:28:17;;;;;;;7.60;4.70;;;;;;;17.68;63.86;155905.28;5049414;28;20489;-83
2022/07/06 04:30:44;;;;;;;5.50;5.00;;;;;;;17.76;63.65;155926.13;5033481;28;20461;-83
2022/07/06 04:33:15;;;;;;;6.40;4.33;;;;;;;17.93;63.32;155970.38;5032272;28;20534;-83
2022/07/06 04:35:44;;;;;;;6.13;4.77;;;;;;;18.14;62.61;156023.75;5033858;28;20443;-83
2022/07/06 04:38:11;;;;;;;5.77;5.27;;;;;;;18.24;62.43;156051.09;5033064;28;20466;-83
2022/07/06 04:40:39;;;;;;;5.50;5.10;;;;;;;18.38;61.85;156084.97;5048463;28;20920;-83
2022/07/06 04:43:10;;;;;;;6.20;5.60;;;;;;;18.50;61.72;156116.31;5033256;28;20447;-83
2022/07/06 04:45:38;;;;;;;5.70;5.20;;;;;;;18.59;61.32;156139.72;5029590;28;20463;-83
2022/07/06 04:48:08;;;;;;;5.43;5.03;;;;;;;18.64;60.85;156152.75;5027150;28;20447;-83
2022/07/06 04:50:35;;;;;;;6.30;5.70;;;;;;;18.62;61.17;156147.53;5050742;28;20461;-83
2022/07/06 04:53:04;;;;;;;5.60;5.10;;;;;;;18.81;61.16;156197.06;5052119;28;20521;-83
2022/07/06 04:55:33;;;;;;;5.47;5.13;;;;;;;19.00;60.68;156246.59;5049451;28;20860;-83
2022/07/06 04:58:00;;;;;;;5.77;5.17;;;;;;;19.09;60.13;156270.00;5025476;28;20815;-83
2022/07/06 05:00:27;;;;;;;5.73;5.23;;;;;;;19.03;60.38;156254.41;5048219;28;20770;-83
2022/07/06 05:02:56;;;;;;;7.37;5.73;;;;;;;19.12;60.37;156277.84;5050159;28;20439;-83
2022/07/06 05:05:26;;;;;;;5.47;4.97;;;;;;;19.20;59.38;156298.69;5033577;28;20466;-83
2022/07/06 05:07:53;;;;;;;5.30;4.63;;;;;;;19.24;60.15;156309.13;5032991;28;20447;-83
2022/07/06 05:10:20;;;;;;;6.27;5.67;;;;;;;19.40;59.66;156350.91;5033032;28;20459;-83
2022/07/06 05:12:51;;;;;;;6.63;5.37;;;;;;;19.53;59.73;156382.16;5031541;28;20534;-83
2022/07/06 05:15:18;;;;;;;5.17;4.67;;;;;;;19.75;58.27;156440.81;5014838;28;20478;-83
2022/07/06 05:17:45;;;;;;;7.57;5.40;;;;;;;19.63;58.46;156408.22;5032593;28;20455;-83
2022/07/06 05:20:14;;;;;;;5.40;5.00;;;;;;;19.74;58.50;156436.91;5030962;28;20919;-83
2022/07/06 05:22:43;;;;;;;5.67;5.27;;;;;;;19.71;58.87;156429.09;5066581;28;20473;-83
2022/07/06 05:25:10;;;;;;;6.17;5.67;;;;;;;19.96;58.73;156495.56;5048397;28;20493;-83
2022/07/06 05:27:37;;;;;;;5.80;5.30;;;;;;;19.71;58.97;156429.09;5048354;28;20933;-83
2022/07/06 05:30:06;;;;;;;6.03;5.53;;;;;;;19.92;58.50;156483.84;5033299;28;20439;-83
2022/07/06 05:32:33;;;;;;;5.60;5.10;;;;;;;20.01;57.99;156507.34;5032813;28;20529;-83
2022/07/06 05:35:00;;;;;;;7.73;5.43;;;;;;;19.95;58.76;156491.69;5046869;28;20474;-83
2022/07/06 05:37:28;;;;;;;5.63;5.10;;;;;;;20.12;58.11;156536.00;5030980;28;20448;-83
2022/07/06 05:39:55;;;;;;;5.97;5.47;;;;;;;20.35;57.75;156594.75;5017685;28;20444;-83
2022/07/06 05:42:22;;;;;;;6.00;5.40;;;;;;;20.30;57.27;156583.03;5035898;28;20534;-83
2022/07/06 05:44:49;;;;;;;6.17;5.70;;;;;;;20.50;57.57;156633.88;5045490;28;20449;-83
2022/07/06 05:50:15;;;;;;;7.30;5.57;;;;;;;20.93;56.08;156744.78;5031687;28;20441;-83
2022/07/06 05:53:01;;;;;;;6.90;5.83;;;;;;;20.92;56.00;156742.16;5034917;28;20810;-83
2022/07/06 05:55:30;;;;;;;5.90;5.40;;;;;;;20.82;55.56;156716.06;5031835;28;20450;-83
2022/07/06 05:57:58;;;;;;;6.03;5.43;;;;;;;20.64;56.40;156670.41;5051722;28;20478;-83
2022/07/06 06:00:28;;;;;;;5.07;4.67;;;;;;;20.98;54.84;156757.81;5034073;28;20466;-83
2022/07/06 06:02:59;;;;;;;9.63;5.30;;;;;;;21.22;54.36;156820.53;5052805;28;20461;-83
2022/07/06 06:05:26;;;;;;;5.70;5.20;;;;;;;21.26;53.47;156830.94;5035546;28;20446;-83
2022/07/06 06:07:59;;;;;;;6.27;5.67;;;;;;;21.28;54.18;156836.19;5026018;28;20455;-83
2022/07/06 06:10:27;;;;;;;6.17;5.13;;;;;;;21.51;53.93;156894.91;5033957;28;20765;-83
2022/07/06 06:12:57;;;;;;;5.20;4.80;;;;;;;21.88;52.71;156990.25;5036522;28;20801;-83
2022/07/06 06:15:24;;;;;;;5.57;5.10;;;;;;;21.99;53.23;157019.00;5053618;28;20482;-83
2022/07/06 06:17:50;;;;;;;5.30;4.90;;;;;;;22.03;51.83;157030.72;5035838;28;20530;-83
2022/07/06 06:20:17;;;;;;;5.67;5.17;;;;;;;21.90;51.42;156996.78;5048957;28;20919;-84
2022/07/06 06:22:48;;;;;;;5.57;5.13;;;;;;;21.85;52.54;156985.00;5049116;28;20505;-84
2022/07/06 06:25:17;;;;;;;5.30;4.90;;;;;;;22.00;53.01;157022.88;5052930;28;20439;-84
2022/07/06 06:27:44;;;;;;;5.77;5.17;;;;;;;22.33;51.37;157107.78;5049540;28;20530;-84
2022/07/06 06:30:11;;;;;;;5.17;4.77;;;;;;;22.32;51.17;157105.16;5050700;28;20804;-84
2022/07/06 06:32:38;;;;;;;5.83;5.33;;;;;;;22.30;51.96;157099.94;5054698;28;20434;-84
2022/07/06 06:35:06;;;;;;;9.23;5.37;;;;;;;22.49;51.17;157148.28;5032232;28;20499;-84
2022/07/06 06:37:34;;;;;;;6.37;5.00;;;;;;;21.94;51.50;157005.94;5058133;28;20448;-84
2022/07/06 06:40:00;;;;;;;5.40;4.90;;;;;;;21.65;53.00;156931.47;5054314;28;20481;-77
2022/07/06 06:42:28;;;;;;;6.07;5.57;;;;;;;21.66;53.81;156934.06;5051245;28;20970;-77
2022/07/06 06:44:55;;;;;;;5.53;5.13;;;;;;;21.96;53.27;157011.16;5035344;28;20533;-77
2022/07/06 06:47:22;;;;;;;6.67;5.33;;;;;;;22.17;51.37;157067.31;5051304;28;20486;-77
2022/07/06 06:49:48;;;;;;;5.43;4.93;;;;;;;22.11;52.49;157050.31;5046750;28;20447;-77
2022/07/06 06:52:18;;;;;;;6.43;5.83;;;;;;;22.11;52.65;157051.63;5049203;28;20550;-77
2022/07/06 06:54:45;;;;;;;7.37;5.20;;;;;;;22.31;51.50;157102.59;5045709;28;20820;-77
2022/07/06 06:57:11;;;;;;;6.00;5.40;;;;;;;22.87;50.75;157247.66;5050880;28;20458;-77
2022/07/06 06:59:39;;;;;;;6.13;5.20;;;;;;;23.00;49.67;157281.63;5053078;28;20521;-77
2022/07/06 07:02:07;;;;;;;5.77;5.10;;;;;;;23.01;49.23;157285.50;5052911;28;20447;-77
2022/07/06 07:04:33;;;;;;;5.30;4.80;;;;;;;23.15;49.41;157319.47;5052489;28;20526;-77
2022/07/06 07:07:00;;;;;;;7.23;5.77;;;;;;;23.28;48.78;157353.47;5051774;28;20511;-77
2022/07/06 07:09:27;;;;;;;6.03;5.53;;;;;;;22.71;49.25;157205.84;5044948;28;20479;-77
2022/07/06 07:11:54;;;;;;;6.10;5.57;;;;;;;22.46;49.96;157141.75;5049565;28;20545;-77
2022/07/06 07:14:21;;;;;;;5.60;5.20;;;;;;;22.76;50.06;157220.22;5050223;28;20978;-77
2022/07/06 07:16:49;;;;;;;6.03;5.37;;;;;;;23.23;48.97;157340.41;5051073;28;20470;-77
2022/07/06 07:19:16;;;;;;;5.83;5.30;;;;;;;23.78;48.02;157482.91;5051509;28;20442;-77
2022/07/06 07:21:43;;;;;;;5.40;5.00;;;;;;;23.37;48.15;157377.06;5041467;28;20546;-77
2022/07/06 07:24:09;;;;;;;5.47;5.07;;;;;;;23.60;48.18;157438.50;5033450;28;20856;-77
2022/07/06 07:26:36;;;;;;;5.80;5.30;;;;;;;23.62;47.66;157442.38;5048271;28;20551;-77
2022/07/06 07:29:06;;;;;;;7.93;5.40;;;;;;;23.21;47.11;157336.50;5052775;28;20439;-77
2022/07/06 07:31:32;;;;;;;6.03;5.43;;;;;;;23.25;48.12;157346.94;5050211;28;20454;-77
2022/07/06 07:34:00;;;;;;;6.03;5.53;;;;;;;23.94;47.88;157526.06;5052326;28;20467;-77
2022/07/06 07:36:27;;;;;;;5.33;4.93;;;;;;;24.27;46.84;157609.81;5051903;28;20535;-78
2022/07/06 07:38:54;;;;;;;5.23;4.73;;;;;;;23.98;46.17;157536.56;5052312;28;20537;-77
2022/07/06 07:41:20;;;;;;;5.17;4.70;;;;;;;24.03;47.07;157549.63;5050581;28;20851;-77
2022/07/06 07:43:47;;;;;;;5.40;4.97;;;;;;;24.08;46.11;157561.38;5046708;28;20888;-77
2022/07/06 07:46:14;;;;;;;5.10;4.60;;;;;;;24.45;46.79;157656.91;5051579;28;20500;-78
2022/07/06 07:48:41;;;;;;;6.63;4.97;;;;;;;24.64;45.41;157706.63;5049858;28;21071;-78
2022/07/06 07:51:09;;;;;;;5.80;5.20;;;;;;;24.42;45.21;157649.03;5034437;28;20458;-78
2022/07/06 07:53:36;;;;;;;5.77;5.37;;;;;;;24.50;45.21;157669.97;5049957;28;20439;-85
2022/07/06 07:56:03;;;;;;;5.50;5.10;;;;;;;24.39;46.00;157641.19;5052032;28;20572;-85
2022/07/06 07:58:29;;;;;;;6.30;5.80;;;;;;;24.47;44.52;157662.13;5050626;28;20478;-85
2022/07/06 08:00:56;;;;;;;4.77;4.47;;;;;;;24.27;45.92;157611.13;5032700;28;20528;-85
2022/07/06 08:03:23;;;;;;;5.27;4.73;;;;;;;24.62;44.67;157701.38;5051243;28;20450;-85
2022/07/06 08:05:50;;;;;;;5.93;5.40;;;;;;;24.47;45.15;157662.13;5058104;28;20451;-81
2022/07/06 08:08:18;;;;;;;5.70;5.20;;;;;;;24.75;44.89;157735.41;5044274;28;20448;-81
2022/07/06 08:10:45;;;;;;;6.80;6.00;;;;;;;24.42;45.01;157650.34;5037069;28;20470;-81
2022/07/06 08:13:14;;;;;;;5.73;5.17;;;;;;;23.97;45.14;157533.91;5051224;28;20451;-81
2022/07/06 08:15:41;;;;;;;5.60;5.17;;;;;;;23.62;45.70;157442.38;5049375;28;20566;-81
2022/07/06 08:18:09;;;;;;;6.60;6.00;;;;;;;23.40;46.93;157384.91;5038722;28;20454;-81
2022/07/06 08:20:35;;;;;;;6.00;5.20;;;;;;;23.87;46.76;157506.47;5050091;28;20458;-81
2022/07/06 08:23:02;;;;;;;6.70;6.00;;;;;;;23.58;46.17;157431.97;5051282;28;20532;-81
2022/07/06 08:25:31;;;;;;;6.63;6.03;;;;;;;23.38;46.96;157379.63;5051069;28;20850;-81
2022/07/06 08:27:58;;;;;;;6.37;5.27;;;;;;;23.49;46.93;157409.72;5046922;28;20439;-81
2022/07/06 08:30:26;;;;;;;7.07;5.80;;;;;;;23.85;46.09;157502.56;5050352;28;20493;-81
2022/07/06 08:32:52;;;;;;;5.63;4.80;;;;;;;24.28;46.16;157613.72;5032349;28;20558;-81
2022/07/06 08:35:19;;;;;;;6.10;5.53;;;;;;;24.25;45.77;157604.59;5046172;28;20581;-81
2022/07/06 08:37:46;;;;;;;6.73;5.73;;;;;;;24.60;44.89;157696.13;5049122;28;20447;-81
2022/07/06 08:40:13;;;;;;;6.20;5.60;;;;;;;24.09;45.77;157565.34;5048087;28;20461;-81
2022/07/06 08:42:42;;;;;;;6.03;5.20;;;;;;;24.13;46.91;157575.81;5043905;28;20431;-81
2022/07/06 08:45:10;;;;;;;6.60;6.00;;;;;;;24.43;45.24;157651.69;5047397;28;20439;-81
2022/07/06 08:47:37;;;;;;;6.30;5.80;;;;;;;24.59;44.76;157693.53;5031707;28;20999;-81
2022/07/06 08:50:05;;;;;;;6.53;5.10;;;;;;;24.88;45.16;157768.16;5053723;28;20438;-81
2022/07/06 08:52:32;;;;;;;5.87;5.27;;;;;;;25.08;44.95;157821.78;5048820;28;20451;-81
2022/07/06 08:54:59;;;;;;;5.60;5.10;;;;;;;25.91;43.67;158036.50;5048633;28;20474;-81
2022/07/06 08:57:27;;;;;;;6.03;5.43;;;;;;;25.71;43.50;157984.09;5050594;28;20471;-82
2022/07/06 08:59:55;;;;;;;6.07;5.47;;;;;;;24.76;45.11;157737.97;5049905;28;20439;-81
2022/07/06 09:02:25;;;;;;;6.03;5.53;;;;;;;25.19;45.18;157849.25;5051477;28;20443;-81
2022/07/06 09:04:52;;;;;;;5.73;4.87;;;;;;;25.40;44.77;157905.53;5045843;28;20455;-81
2022/07/06 09:07:19;;;;;;;5.20;4.70;;;;;;;25.95;44.99;158046.94;5049626;28;20864;-81
2022/07/06 09:09:46;;;;;;;5.27;4.77;;;;;;;26.20;43.19;158111.16;5049343;28;20481;-82
2022/07/06 09:12:14;;;;;;;5.20;4.80;;;;;;;26.23;42.69;158120.34;5053536;28;20482;-82
2022/07/06 09:14:40;;;;;;;6.37;4.30;;;;;;;26.52;43.03;158196.31;5053685;28;20496;-81
2022/07/06 09:17:08;;;;;;;5.33;4.93;;;;;;;26.95;41.63;158307.66;5053558;28;20443;-82
2022/07/06 09:19:36;;;;;;;6.07;5.30;;;;;;;27.21;40.00;158374.50;5053071;28;20434;-82
2022/07/06 09:22:03;;;;;;;5.17;4.60;;;;;;;26.56;41.88;158206.75;5051943;28;20459;-82
2022/07/06 09:24:31;;;;;;;5.77;5.27;;;;;;;26.46;42.68;158179.25;5051633;28;20450;-82
2022/07/06 09:26:59;;;;;;;6.87;5.20;;;;;;;26.40;42.20;158164.84;5054648;28;20545;-82
2022/07/06 09:29:29;;;;;;;4.53;4.13;;;;;;;26.31;43.16;158141.31;5052936;28;20493;-81
2022/07/06 09:31:59;;;;;;;6.30;5.70;;;;;;;26.40;42.23;158164.84;5051415;28;20465;-82
2022/07/06 09:34:41;;;;;;;6.47;5.10;;;;;;;26.58;41.91;158212.00;5051827;28;20498;-82
2022/07/06 09:37:08;;;;;;;5.70;5.20;;;;;;;27.01;41.40;158323.38;5054940;28;20906;-82
2022/07/06 09:39:35;;;;;;;5.10;4.30;;;;;;;27.19;40.94;158370.56;5051518;28;20500;-82
2022/07/06 09:42:04;;;;;;;6.90;5.53;;;;;;;27.21;40.23;158374.50;5046076;28;20896;-82
2022/07/06 09:44:31;;;;;;;5.70;5.00;;;;;;;26.24;41.04;158121.66;5051415;28;20526;-82
2022/07/06 09:46:59;;;;;;;5.07;4.57;;;;;;;25.82;43.95;158014.22;5049969;28;20500;-82
2022/07/06 09:49:27;;;;;;;6.50;4.93;;;;;;;25.98;42.46;158054.81;5053600;28;20446;-82
2022/07/06 09:51:56;;;;;;;5.93;5.23;;;;;;;26.20;41.51;158111.16;5052305;28;20876;-82
2022/07/06 09:54:23;;;;;;;7.23;4.70;;;;;;;26.63;41.54;158222.50;5051000;28;20450;-82
2022/07/06 09:56:51;;;;;;;5.03;4.63;;;;;;;26.50;40.43;158191.03;5050005;28;20561;-82
2022/07/06 09:59:21;;;;;;;9.43;5.60;;;;;;;25.49;42.12;157926.53;5052202;28;20488;-82
2022/07/06 10:01:48;;;;;;;6.17;4.30;;;;;;;25.02;43.45;157804.78;5035792;28;20462;-82
2022/07/06 10:04:15;;;;;;;5.70;5.10;;;;;;;24.90;44.71;157774.69;5045263;28;20451;-81
2022/07/06 10:06:43;;;;;;;6.00;5.50;;;;;;;24.83;44.63;157756.38;5054386;28;20431;-81
2022/07/06 10:09:10;;;;;;;5.70;4.83;;;;;;;25.09;44.65;157824.41;5050221;28;20450;-81
2022/07/06 10:11:40;;;;;;;5.10;4.70;;;;;;;25.49;44.05;157926.53;5051195;28;20557;-81
2022/07/06 10:14:08;;;;;;;11.20;6.07;;;;;;;25.00;43.91;157799.53;5034788;28;20444;-81
2022/07/06 10:16:37;;;;;;;5.70;5.10;;;;;;;25.12;44.80;157832.28;5042864;28;20479;-81
2022/07/06 10:19:06;;;;;;;5.53;5.00;;;;;;;25.72;43.41;157988.06;5053456;28;20489;-81
2022/07/06 10:21:35;;;;;;;5.67;5.07;;;;;;;25.99;42.82;158057.44;5053122;28;20458;-81
2022/07/06 10:24:04;;;;;;;4.67;4.27;;;;;;;26.58;41.98;158210.72;5052877;28;20903;-82
2022/07/06 10:26:31;;;;;;;5.67;5.17;;;;;;;26.19;42.21;158108.53;5053403;28;20989;-81
2022/07/06 10:28:59;;;;;;;5.90;5.40;;;;;;;25.73;42.56;157990.69;5049732;28;20451;-81
2022/07/06 10:31:26;;;;;;;8.90;5.83;;;;;;;25.68;43.77;157976.28;5032252;28;20455;-81
2022/07/06 10:33:53;;;;;;;5.97;5.37;;;;;;;25.85;42.23;158022.09;5039904;28;20481;-81
2022/07/06 10:36:20;;;;;;;6.90;6.40;;;;;;;24.92;44.43;157779.91;5051861;28;20482;-81
2022/07/06 10:38:50;;;;;;;6.00;5.50;;;;;;;24.68;45.57;157717.06;5048171;28;20451;-77
2022/07/06 10:41:18;;;;;;;5.07;4.57;;;;;;;24.85;45.33;157760.28;5049314;28;20857;-77
2022/07/06 10:43:46;;;;;;;6.53;5.93;;;;;;;24.12;46.09;157573.19;5053546;28;20475;-77
2022/07/06 10:46:15;;;;;;;5.10;4.70;;;;;;;24.13;47.45;157575.81;5049165;28;20482;-77
2022/07/06 10:48:43;;;;;;;5.57;5.10;;;;;;;24.09;47.52;157564.06;5051770;28;20435;-77
2022/07/06 10:51:12;;;;;;;6.87;5.10;;;;;;;23.97;48.06;157532.59;5051645;28;20447;-76
2022/07/06 10:53:40;;;;;;;6.20;5.10;;;;;;;24.27;47.09;157611.13;5051989;28;20439;-76
2022/07/06 10:56:08;;;;;;;5.63;5.00;;;;;;;24.48;47.35;157664.75;5049893;28;20477;-76
2022/07/06 10:58:39;;;;;;;6.63;4.63;;;;;;;24.87;46.45;157766.84;5039549;28;20530;-76
2022/07/06 11:01:06;;;;;;;6.17;5.27;;;;;;;24.51;46.33;157673.94;5051500;28;20449;-76
2022/07/06 11:03:41;;;;;;;6.53;5.00;;;;;;;24.35;47.13;157632.06;5048099;28;20455;-76
2022/07/06 11:06:10;;;;;;;8.20;5.30;;;;;;;24.71;46.09;157724.91;5052042;28;20525;-76
2022/07/06 11:08:56;;;;;;;6.40;5.90;;;;;;;24.79;45.72;157745.88;5050931;28;20554;-76
2022/07/06 11:11:26;;;;;;;5.83;5.30;;;;;;;24.34;46.26;157629.44;5053029;28;20447;-76
2022/07/06 11:13:56;;;;;;;6.53;5.70;;;;;;;23.94;47.35;157524.75;5049250;28;20525;-76
2022/07/06 11:16:25;;;;;;;7.30;6.60;;;;;;;23.18;49.17;157327.34;5050255;28;21017;-76
2022/07/06 11:19:04;;;;;;;9.33;5.83;;;;;;;23.08;50.42;157301.22;5052176;28;20514;-76
2022/07/06 11:21:37;;;;;;;8.90;5.90;;;;;;;23.40;48.40;157384.91;5033062;28;20444;-76
2022/07/06 11:24:05;;;;;;;7.73;5.00;;;;;;;23.68;48.67;157458.09;5031307;28;20993;-76
2022/07/06 11:26:32;;;;;;;5.63;4.87;;;;;;;24.12;48.12;157573.19;5048676;28;20451;-76
2022/07/06 11:29:01;;;;;;;5.60;5.10;;;;;;;24.11;48.52;157570.59;5049272;28;20537;-76
2022/07/06 11:31:28;;;;;;;5.13;4.73;;;;;;;24.45;47.00;157658.22;5048842;28;20504;-76
2022/07/06 11:33:55;;;;;;;5.23;4.73;;;;;;;24.63;47.10;157703.97;5049796;28;20449;-75